Time;durP1;ratioP1;P1;durP2;ratioP2;P2;SDS_P1;SDS_P2;PMS_P1;PMS_P2;Temp;Humidity;BMP_temperature;BMP_pressure;BME280_temperature;BME280_humidity;BME280_pressure;Samples;Min_cycle;Max_cycle;Signal;HPM_P1;HPM_P2
2023/10/10 00:01:44;;;;;;;0.67;0.40;;;;;;;15.83;74.20;95730.53;5135326;27;20798;-57
2023/10/10 00:04:13;;;;;;;0.50;0.50;;;;;;;15.82;73.28;95727.06;5135021;27;20883;-57
2023/10/10 00:06:42;;;;;;;0.63;0.50;;;;;;;15.73;75.27;95726.13;5134764;27;20818;-58
2023/10/10 00:09:11;;;;;;;0.40;0.30;;;;;;;15.52;76.63;95721.38;5134712;27;20497;-57
2023/10/10 00:11:48;;;;;;;0.50;0.30;;;;;;;15.03;79.25;95722.56;5134826;27;20435;-58
2023/10/10 00:14:19;;;;;;;0.80;0.80;;;;;;;15.13;79.41;95709.06;5134866;27;20462;-58
2023/10/10 00:16:54;;;;;;;0.50;0.40;;;;;;;15.63;76.67;95707.59;5135046;27;20453;-58
2023/10/10 00:19:29;;;;;;;0.50;0.30;;;;;;;15.01;79.40;95707.91;5126512;27;20447;-58
2023/10/10 00:22:00;;;;;;;0.70;0.67;;;;;;;15.03;79.45;95708.41;5130024;27;20883;-58
2023/10/10 00:24:31;;;;;;;0.63;0.50;;;;;;;14.85;80.81;95696.63;5134852;27;21044;-58
2023/10/10 00:27:06;;;;;;;2.10;0.67;;;;;;;14.92;80.65;95699.75;5134524;27;20487;-58
2023/10/10 00:29:34;;;;;;;0.40;0.30;;;;;;;14.76;81.58;95706.34;5134312;27;20592;-57
2023/10/10 00:32:13;;;;;;;0.70;0.50;;;;;;;14.68;81.87;95709.66;5134122;27;20436;-57
2023/10/10 00:34:43;;;;;;;0.40;0.30;;;;;;;14.89;80.94;95702.19;5133618;27;20439;-57
2023/10/10 00:37:13;;;;;;;0.40;0.40;;;;;;;15.08;80.18;95709.13;5134640;27;20442;-57
2023/10/10 00:39:47;;;;;;;0.60;0.30;;;;;;;15.01;80.31;95700.69;5134186;27;20858;-57
2023/10/10 00:42:19;;;;;;;0.50;0.43;;;;;;;15.10;79.81;95700.84;5134130;27;20972;-57
2023/10/10 00:44:49;;;;;;;0.60;0.47;;;;;;;14.89;80.56;95705.66;5134015;27;20439;-57
2023/10/10 00:47:25;;;;;;;0.50;0.30;;;;;;;14.97;80.78;95714.91;5133953;27;20499;-57
2023/10/10 00:49:54;;;;;;;0.40;0.30;;;;;;;15.08;79.31;95703.81;5133552;27;20470;-57
2023/10/10 00:52:23;;;;;;;0.40;0.33;;;;;;;14.55;81.89;95695.13;5134038;27;20481;-57
2023/10/10 00:54:52;;;;;;;0.80;0.50;;;;;;;14.68;82.33;95695.50;5134245;27;21009;-57
2023/10/10 00:57:21;;;;;;;0.50;0.30;;;;;;;15.03;80.38;95693.19;5133906;27;20550;-58
2023/10/10 00:59:54;;;;;;;0.60;0.47;;;;;;;15.14;79.04;95701.84;5133575;27;20439;-56
2023/10/10 01:02:25;;;;;;;0.40;0.20;;;;;;;14.68;81.47;95672.31;5133881;27;20529;-57
2023/10/10 01:04:57;;;;;;;0.40;0.30;;;;;;;14.79;81.78;95694.31;5133984;27;20438;-56
2023/10/10 01:07:26;;;;;;;0.40;0.20;;;;;;;14.78;82.59;95698.84;5133080;27;20462;-56
2023/10/10 01:10:07;;;;;;;8.83;0.53;;;;;;;14.53;83.91;95680.50;5133387;27;20482;-57
2023/10/10 01:12:36;;;;;;;0.50;0.30;;;;;;;14.89;81.75;95695.00;5134232;27;20438;-57
2023/10/10 01:15:08;;;;;;;0.40;0.30;;;;;;;14.57;83.57;95684.19;5133706;27;20926;-57
2023/10/10 01:17:38;;;;;;;0.50;0.37;;;;;;;14.90;81.80;95690.44;5126784;27;20474;-57
2023/10/10 01:20:19;;;;;;;0.60;0.40;;;;;;;14.83;82.93;95690.78;5127208;27;20922;-58
2023/10/10 01:22:51;;;;;;;0.50;0.50;;;;;;;14.75;82.46;95680.75;5133118;27;20895;-58
2023/10/10 01:25:41;;;;;;;0.63;0.60;;;;;;;14.82;82.05;95681.22;5132791;27;20943;-57
2023/10/10 01:28:23;;;;;;;0.40;0.30;;;;;;;14.89;81.47;95686.97;5133156;27;20442;-57
2023/10/10 01:31:04;;;;;;;0.40;0.20;;;;;;;14.93;81.09;95689.84;5110823;27;20561;-58
2023/10/10 01:36:22;;;;;;;0.40;0.30;;;;;;;14.66;83.15;95687.81;5130012;27;21175;-57
2023/10/10 01:39:28;;;;;;;1.90;0.33;;;;;;;14.42;85.37;95701.13;5133867;27;20508;-59
2023/10/10 01:41:58;;;;;;;0.40;0.30;;;;;;;14.21;87.41;95688.28;5132699;27;20532;-57
2023/10/10 01:44:27;;;;;;;0.40;0.30;;;;;;;14.49;85.09;95680.28;5133628;27;20449;-58
2023/10/10 01:46:56;;;;;;;0.90;0.37;;;;;;;14.82;81.99;95683.09;5133502;27;20442;-57
2023/10/10 01:49:29;;;;;;;0.50;0.37;;;;;;;14.51;83.24;95674.66;5132879;27;20439;-57
2023/10/10 01:51:59;;;;;;;0.40;0.30;;;;;;;14.51;83.71;95671.97;5133033;27;20442;-58
2023/10/10 01:54:40;;;;;;;0.40;0.30;;;;;;;14.45;83.94;95671.25;5132138;27;20439;-57
2023/10/10 01:57:09;;;;;;;0.50;0.30;;;;;;;14.57;83.52;95682.28;5132422;27;20446;-57
2023/10/10 01:59:38;;;;;;;0.40;0.20;;;;;;;14.73;81.95;95672.22;5132382;27;20530;-57
2023/10/10 02:02:11;;;;;;;0.60;0.30;;;;;;;14.72;81.52;95675.19;5132640;27;20445;-57
2023/10/10 02:04:39;;;;;;;0.50;0.30;;;;;;;14.12;86.33;95668.63;5132621;27;20431;-58
2023/10/10 02:07:15;;;;;;;0.40;0.30;;;;;;;14.39;83.57;95691.06;5132544;27;20466;-57
2023/10/10 02:09:53;;;;;;;0.40;0.20;;;;;;;14.40;83.31;95699.84;5132389;27;20548;-57
2023/10/10 02:12:22;;;;;;;0.40;0.20;;;;;;;14.10;84.94;95694.78;5132819;27;20465;-57
2023/10/10 02:14:54;;;;;;;0.50;0.30;;;;;;;13.70;88.24;95688.75;5132694;27;20495;-57
2023/10/10 02:17:26;;;;;;;0.40;0.30;;;;;;;13.99;85.08;95692.22;5131402;27;20470;-58
2023/10/10 02:19:59;;;;;;;0.60;0.60;;;;;;;13.58;88.23;95679.53;5132691;27;20863;-58
2023/10/10 02:22:49;;;;;;;6.73;0.50;;;;;;;13.49;90.76;95687.31;5132261;27;20439;-58
2023/10/10 02:25:39;;;;;;;0.40;0.20;;;;;;;13.74;88.43;95691.66;5131801;28;20487;-58
2023/10/10 02:28:19;;;;;;;0.50;0.30;;;;;;;13.83;87.06;95679.34;5132506;28;20462;-57
2023/10/10 02:30:52;;;;;;;0.40;0.30;;;;;;;14.09;84.86;95694.00;5132814;27;20486;-57
2023/10/10 02:33:31;;;;;;;0.50;0.40;;;;;;;13.80;86.79;95667.38;5132533;28;20835;-57
2023/10/10 02:36:00;;;;;;;7.00;0.50;;;;;;;13.66;89.02;95674.41;5132372;27;20438;-57
2023/10/10 02:38:33;;;;;;;0.40;0.30;;;;;;;13.86;87.22;95670.78;5131873;27;20438;-57
2023/10/10 02:41:26;;;;;;;0.70;0.30;;;;;;;14.17;84.47;95682.72;5131864;28;20525;-57
2023/10/10 02:44:04;;;;;;;0.70;0.30;;;;;;;14.29;83.52;95685.81;5132453;27;20464;-57
2023/10/10 02:46:37;;;;;;;0.40;0.20;;;;;;;14.20;83.05;95676.03;5132134;27;20523;-57
2023/10/10 02:49:12;;;;;;;1.80;0.43;;;;;;;14.34;83.29;95687.66;5132226;28;20434;-57
2023/10/10 02:51:43;;;;;;;0.70;0.60;;;;;;;14.05;85.84;95673.50;5131006;28;20480;-57
2023/10/10 02:54:27;;;;;;;3.07;1.13;;;;;;;14.01;86.63;95695.41;5132244;28;20453;-57
2023/10/10 02:57:27;;;;;;;0.50;0.30;;;;;;;12.89;92.34;95594.56;5132403;28;20522;-57
2023/10/10 02:59:51;;;;;;;0.70;0.40;;;;;;;13.42;95.20;95702.81;5132145;27;20434;-57
2023/10/10 03:02:20;;;;;;;0.60;0.47;;;;;;;13.16;97.22;95682.75;5131405;27;20463;-57
2023/10/10 03:05:05;;;;;;;0.50;0.40;;;;;;;13.21;98.27;95686.19;5132317;28;20487;-57
2023/10/10 03:07:35;;;;;;;0.50;0.40;;;;;;;13.22;93.37;95631.91;5131677;27;20469;-57
2023/10/10 03:13:05;;;;;;;0.60;0.40;;;;;;;13.02;100.00;95703.06;5093890;28;20446;-57
2023/10/10 03:15:34;;;;;;;0.50;0.50;;;;;;;12.50;100.00;95669.78;5131693;27;20484;-57
2023/10/10 03:18:17;;;;;;;0.40;0.30;;;;;;;13.05;100.00;95697.19;5131943;27;20441;-57
2023/10/10 03:21:06;;;;;;;0.47;0.40;;;;;;;12.66;100.00;95679.28;5131852;28;20457;-57
2023/10/10 03:23:43;;;;;;;0.70;0.30;;;;;;;13.11;100.00;95706.75;5131754;27;20435;-57
2023/10/10 03:26:19;;;;;;;2.53;0.70;;;;;;;12.65;100.00;95669.72;5131813;28;20521;-57
2023/10/10 03:28:49;;;;;;;0.57;0.50;;;;;;;13.29;100.00;95706.09;5133613;27;20509;-58
2023/10/10 03:31:25;;;;;;;0.40;0.30;;;;;;;13.24;99.86;95682.97;5135839;27;20522;-58
2023/10/10 03:34:11;;;;;;;0.40;0.30;;;;;;;13.34;99.65;95696.22;5135221;27;20713;-58
2023/10/10 03:36:44;;;;;;;1.90;0.70;;;;;;;12.94;100.00;95664.50;5135539;27;20434;-57
2023/10/10 03:39:24;;;;;;;0.50;0.30;;;;;;;12.73;100.00;95695.75;5135416;27;20929;-57
2023/10/10 05:24:14;;;;;;;0.47;0.37;;;;;;;13.91;92.85;95727.47;5133864;27;20446;-50
2023/10/10 05:26:47;;;;;;;0.40;0.30;;;;;;;13.70;93.73;95722.59;5119573;27;20849;-50
2023/10/10 05:29:19;;;;;;;3.20;0.50;;;;;;;14.17;92.15;95725.38;5133462;27;20430;-51
2023/10/10 05:31:51;;;;;;;0.50;0.50;;;;;;;14.38;89.71;95721.47;5132550;27;20462;-51
2023/10/10 05:34:20;;;;;;;0.50;0.50;;;;;;;14.37;89.52;95725.19;5133482;27;20435;-51
2023/10/10 05:36:49;;;;;;;0.50;0.40;;;;;;;14.47;89.50;95727.75;5133610;27;20914;-51
2023/10/10 05:39:21;;;;;;;1.83;0.50;;;;;;;14.89;88.93;95731.56;5133221;27;20435;-52
2023/10/10 05:41:54;;;;;;;0.50;0.30;;;;;;;15.46;96.31;95739.34;5132860;27;20438;-52
2023/10/10 05:44:25;;;;;;;0.40;0.30;;;;;;;15.85;86.36;95726.47;5133229;27;20446;-53
2023/10/10 05:46:54;;;;;;;0.60;0.53;;;;;;;15.74;81.35;95726.91;5099162;28;20431;-53
2023/10/10 05:49:22;;;;;;;2.03;1.83;;;;;;;15.44;82.66;95722.00;5126789;27;20445;-52
2023/10/10 05:51:51;;;;;;;0.50;0.40;;;;;;;15.54;84.34;95733.38;5132006;27;20505;-52
2023/10/10 05:54:21;;;;;;;0.60;0.60;;;;;;;15.46;81.96;95727.88;5132322;27;20438;-53
2023/10/10 05:56:50;;;;;;;0.50;0.40;;;;;;;15.00;82.75;95739.13;5132151;27;20435;-52
2023/10/10 05:59:18;;;;;;;0.60;0.50;;;;;;;15.62;88.12;95739.94;5132699;27;20812;-52
2023/10/10 06:01:47;;;;;;;0.50;0.40;;;;;;;16.10;80.51;95733.28;5132789;27;20466;-53
2023/10/10 06:04:15;;;;;;;1.07;0.97;;;;;;;15.89;79.22;95732.00;5133004;27;20922;-52
2023/10/10 06:06:44;;;;;;;0.70;0.40;;;;;;;15.78;79.50;95742.09;5132909;27;20513;-51
2023/10/10 06:09:18;;;;;;;0.43;0.30;;;;;;;15.89;78.80;95740.03;5132753;27;20465;-52
2023/10/10 06:11:50;;;;;;;1.20;1.10;;;;;;;15.71;79.52;95743.53;5132089;27;20461;-52
2023/10/10 06:14:21;;;;;;;0.53;0.40;;;;;;;16.33;79.83;95739.56;5132950;27;20426;-51
2023/10/10 06:16:52;;;;;;;0.47;0.30;;;;;;;16.79;78.83;95743.00;5132406;27;20481;-51
2023/10/10 06:19:21;;;;;;;0.40;0.30;;;;;;;17.10;75.56;95740.53;5132449;27;20936;-53
2023/10/10 06:21:55;;;;;;;1.50;1.40;;;;;;;17.02;74.99;95750.06;5118549;27;20964;-53
2023/10/10 06:24:25;;;;;;;0.60;0.60;;;;;;;16.99;75.11;95737.25;5132818;27;20434;-55
2023/10/10 06:27:00;;;;;;;0.60;0.60;;;;;;;17.02;74.33;95742.03;5132143;27;20439;-54
2023/10/10 06:29:29;;;;;;;1.90;1.47;;;;;;;16.64;75.82;95753.22;5132419;28;20936;-53
2023/10/10 06:31:57;;;;;;;1.10;1.00;;;;;;;16.83;75.05;95752.03;5131930;28;20954;-54
2023/10/10 06:34:34;;;;;;;4.50;0.93;;;;;;;16.71;74.81;95745.56;5131661;28;20495;-54
2023/10/10 06:37:07;;;;;;;1.30;1.20;;;;;;;16.98;73.42;95751.72;5105347;28;20434;-54
2023/10/10 06:39:53;;;;;;;0.93;0.93;;;;;;;16.79;73.97;95742.22;5132750;28;20454;-55
2023/10/10 06:42:28;;;;;;;6.50;1.40;;;;;;;16.25;75.75;95759.75;5128302;27;20434;-55
2023/10/10 06:45:02;;;;;;;0.80;0.60;;;;;;;16.32;76.33;95749.47;5132527;28;20430;-55
2023/10/10 06:47:32;;;;;;;2.73;0.93;;;;;;;16.75;75.01;95744.69;5132518;28;20447;-55
2023/10/10 06:50:01;;;;;;;2.60;0.70;;;;;;;16.70;75.31;95757.38;5105643;28;20442;-54
2023/10/10 06:52:36;;;;;;;1.00;0.73;;;;;;;16.17;76.61;95752.41;5132052;28;21058;-55
2023/10/10 06:55:10;;;;;;;1.07;0.67;;;;;;;15.94;78.08;95753.31;5132133;28;20431;-54
2023/10/10 06:57:43;;;;;;;1.23;1.13;;;;;;;15.87;78.86;95753.69;5132221;28;20848;-53
2023/10/10 07:00:27;;;;;;;0.63;0.53;;;;;;;16.72;77.05;95752.53;5132615;28;20866;-54
2023/10/10 07:02:57;;;;;;;1.13;1.03;;;;;;;17.44;73.23;95742.72;5134405;27;20430;-54
2023/10/10 07:05:27;;;;;;;1.63;0.73;;;;;;;17.68;71.82;95733.34;5136624;27;20521;-54
2023/10/10 07:07:59;;;;;;;2.60;1.27;;;;;;;17.70;71.56;95747.25;5109451;27;20481;-54
2023/10/10 07:10:34;;;;;;;0.50;0.40;;;;;;;18.36;71.06;95742.97;5136425;27;20437;-52
2023/10/10 07:13:11;;;;;;;1.37;1.00;;;;;;;18.83;68.57;95747.63;5136137;27;20826;-52
2023/10/10 07:15:39;;;;;;;1.47;0.73;;;;;;;18.73;68.21;95731.81;5135143;27;20434;-52
2023/10/10 07:18:14;;;;;;;0.60;0.50;;;;;;;18.48;67.67;95680.69;5136328;27;20438;-53
2023/10/10 07:23:37;;;;;;;1.20;0.90;;;;;;;17.88;68.68;95717.88;5135820;27;20522;-54
2023/10/10 07:26:18;;;;;;;1.07;0.73;;;;;;;18.09;69.45;95768.03;5135359;27;20445;-53
2023/10/10 07:28:49;;;;;;;0.40;0.30;;;;;;;17.92;68.47;95687.47;5135399;27;20787;-52
2023/10/10 07:31:17;;;;;;;0.50;0.50;;;;;;;18.17;67.93;95755.78;5135869;27;20470;-53
2023/10/10 07:33:54;;;;;;;1.73;1.63;;;;;;;18.36;71.99;95759.06;5135631;27;20962;-54
2023/10/10 07:36:26;;;;;;;2.97;0.90;;;;;;;18.49;67.67;95738.66;5135133;27;20498;-54
2023/10/10 07:39:31;;;;;;;0.73;0.73;;;;;;;18.66;67.79;95736.03;5135884;27;20549;-53
2023/10/10 07:41:46;;;;;;;0.60;0.60;;;;;;;18.52;67.45;95743.41;5134833;27;20441;-53
2023/10/10 07:44:22;;;;;;;0.70;0.50;;;;;;;18.83;68.71;95736.88;5135713;27;20521;-53
2023/10/10 07:49:33;;;;;;;1.00;0.90;;;;;;;18.71;68.19;95725.94;5134940;27;20491;-53
2023/10/10 07:52:03;;;;;;;1.13;1.13;;;;;;;18.50;67.66;95732.97;5135219;27;20443;-53
2023/10/10 07:54:38;;;;;;;1.90;1.70;;;;;;;18.37;67.62;95731.13;5135290;27;20603;-53
2023/10/10 07:57:14;;;;;;;4.77;0.80;;;;;;;18.46;68.36;95748.06;5135838;27;20438;-53
2023/10/10 07:59:47;;;;;;;2.83;0.70;;;;;;;19.10;67.63;95737.78;5108040;27;20518;-54
2023/10/10 08:02:31;;;;;;;7.03;1.27;;;;;;;18.90;66.02;95713.06;5134195;27;20488;-52
2023/10/10 08:05:09;;;;;;;1.63;1.53;;;;;;;19.18;66.21;95737.78;5135030;27;20438;-51
2023/10/10 08:07:38;;;;;;;0.60;0.57;;;;;;;19.65;63.83;95738.84;5134283;27;20458;-52
2023/10/10 08:10:29;;;;;;;0.77;0.60;;;;;;;19.51;63.48;95740.88;5135008;27;20454;-52
2023/10/10 08:12:58;;;;;;;1.40;1.10;;;;;;;19.62;65.06;95742.16;5134264;27;20981;-52
2023/10/10 08:15:28;;;;;;;0.60;0.53;;;;;;;19.37;65.23;95706.06;5133218;27;20918;-52
2023/10/10 08:17:58;;;;;;;2.13;1.00;;;;;;;19.42;64.86;95732.81;5126262;27;20447;-52
2023/10/10 08:20:34;;;;;;;0.73;0.63;;;;;;;19.78;64.00;95734.41;5130715;27;20993;-51
2023/10/10 08:23:04;;;;;;;0.87;0.87;;;;;;;19.98;63.70;95744.53;5134928;27;20445;-53
2023/10/10 08:25:33;;;;;;;2.50;1.37;;;;;;;20.11;62.89;95738.19;5133871;27;20438;-53
2023/10/10 08:28:02;;;;;;;0.60;0.60;;;;;;;20.08;63.65;95726.16;5134606;27;20522;-52
2023/10/10 08:30:33;;;;;;;1.13;0.70;;;;;;;20.37;62.67;95724.69;5133901;27;20431;-52
2023/10/10 08:33:02;;;;;;;0.60;0.60;;;;;;;20.22;63.71;95720.56;5134082;27;20506;-52
2023/10/10 08:35:38;;;;;;;0.40;0.30;;;;;;;19.91;63.50;95715.38;5134375;27;20435;-53
2023/10/10 08:38:07;;;;;;;0.90;0.50;;;;;;;20.07;65.10;95715.69;5133686;27;20878;-51
2023/10/10 08:40:40;;;;;;;0.80;0.80;;;;;;;20.01;62.83;95715.06;5134595;27;20513;-51
2023/10/10 08:43:10;;;;;;;1.03;1.03;;;;;;;19.91;63.03;95715.38;5133700;27;20430;-51
2023/10/10 08:45:43;;;;;;;1.87;1.77;;;;;;;20.26;63.22;95711.56;5133909;27;20968;-52
2023/10/10 08:48:16;;;;;;;1.13;1.03;;;;;;;20.68;63.08;95703.66;5134423;27;20430;-52
2023/10/10 08:50:45;;;;;;;3.97;0.80;;;;;;;20.75;62.20;95698.56;5134282;27;20439;-52
2023/10/10 08:53:14;;;;;;;0.60;0.50;;;;;;;20.97;60.33;95700.22;5134134;27;20477;-52
2023/10/10 08:55:43;;;;;;;2.80;0.60;;;;;;;21.17;60.69;95686.81;5134248;27;20460;-52
2023/10/10 08:58:12;;;;;;;0.70;0.50;;;;;;;20.96;60.50;95677.06;5134061;27;20463;-52
2023/10/10 09:00:42;;;;;;;1.73;1.33;;;;;;;20.66;59.98;95698.63;5133278;27;20441;-51
2023/10/10 09:03:13;;;;;;;2.30;0.60;;;;;;;20.74;62.24;95694.31;5133666;27;20431;-52
2023/10/10 09:05:42;;;;;;;0.70;0.63;;;;;;;20.78;62.09;95692.53;5133375;27;20785;-52
2023/10/10 09:08:16;;;;;;;1.47;1.07;;;;;;;20.70;61.16;95699.53;5133939;27;20474;-52
2023/10/10 09:10:46;;;;;;;0.50;0.50;;;;;;;19.82;62.74;95701.16;5133574;27;20430;-52
2023/10/10 09:13:16;;;;;;;1.07;0.97;;;;;;;19.86;63.62;95693.25;5133641;27;20498;-52
2023/10/10 09:15:56;;;;;;;0.93;0.90;;;;;;;20.79;60.90;95678.75;5133939;27;20462;-53
2023/10/10 09:18:25;;;;;;;2.67;1.50;;;;;;;22.49;58.18;95691.19;5133963;27;20450;-52
2023/10/10 09:21:17;;;;;;;0.80;0.70;;;;;;;23.22;55.20;95683.16;5107376;27;20427;-53
2023/10/10 09:24:07;;;;;;;0.80;0.63;;;;;;;24.20;53.15;95687.16;5133358;27;20431;-53
2023/10/10 09:26:37;;;;;;;0.50;0.50;;;;;;;23.68;53.23;95689.97;5132023;27;20445;-52
2023/10/10 09:29:15;;;;;;;0.60;0.40;;;;;;;23.54;52.40;95684.13;5133750;27;20440;-52
2023/10/10 09:31:58;;;;;;;3.90;0.40;;;;;;;23.82;52.89;95677.59;5119678;27;20745;-53
2023/10/10 09:34:35;;;;;;;0.50;0.30;;;;;;;23.40;52.87;95681.00;5132584;27;20485;-53
2023/10/10 09:37:07;;;;;;;1.33;1.33;;;;;;;22.43;55.14;95670.94;5133382;27;20471;-52
2023/10/10 09:39:37;;;;;;;0.93;0.93;;;;;;;22.84;54.44;95672.69;5133039;27;20438;-52
2023/10/10 09:42:26;;;;;;;0.50;0.40;;;;;;;22.99;53.90;95666.63;5133074;27;20529;-53
2023/10/10 09:47:43;;;;;;;1.60;0.50;;;;;;;23.59;53.66;95657.59;5130967;27;20859;-53
2023/10/10 09:52:59;;;;;;;1.17;1.10;;;;;;;23.05;55.33;95646.31;5127209;27;20673;-53
2023/10/10 09:55:42;;;;;;;1.03;0.60;;;;;;;24.16;52.79;95640.25;5123559;27;20929;-53
2023/10/10 09:58:26;;;;;;;0.70;0.70;;;;;;;24.74;52.16;95633.19;5107370;27;20434;-53
2023/10/10 10:01:04;;;;;;;0.60;0.43;;;;;;;24.57;50.28;95570.06;5132545;27;20466;-52
2023/10/10 10:03:42;;;;;;;6.80;1.00;;;;;;;24.57;50.12;95635.09;5132779;27;20897;-53
2023/10/10 10:06:35;;;;;;;0.50;0.50;;;;;;;24.79;49.94;95635.66;5132043;27;20521;-52
2023/10/10 10:09:45;;;;;;;5.10;0.93;;;;;;;24.21;50.08;95624.50;5132267;27;20433;-52
2023/10/10 10:12:41;;;;;;;0.70;0.63;;;;;;;25.56;48.92;95620.31;5099635;27;20446;-52
2023/10/10 10:15:28;;;;;;;2.60;0.70;;;;;;;26.16;47.39;95605.22;5131992;27;20478;-52
2023/10/10 10:18:12;;;;;;;0.47;0.33;;;;;;;26.63;46.76;95605.63;5109777;27;20476;-51
2023/10/10 10:20:47;;;;;;;7.20;0.53;;;;;;;26.24;48.74;95604.19;5131689;27;20449;-51
2023/10/10 10:23:25;;;;;;;3.37;1.20;;;;;;;25.80;49.06;95601.03;5119634;27;20453;-51
2023/10/10 10:26:04;;;;;;;0.73;0.73;;;;;;;25.95;48.17;95600.16;5119749;28;20469;-52
2023/10/10 10:28:35;;;;;;;8.70;1.57;;;;;;;25.94;47.78;95598.59;5131882;28;20438;-52
2023/10/10 10:31:07;;;;;;;2.30;0.70;;;;;;;25.51;47.77;95596.19;5132674;28;20441;-58
2023/10/10 10:33:52;;;;;;;1.70;0.37;;;;;;;26.08;47.51;95588.00;5132425;27;20531;-57
2023/10/10 10:36:27;;;;;;;0.50;0.40;;;;;;;26.22;46.67;95580.09;5132212;27;20444;-56
2023/10/10 10:41:53;;;;;;;6.23;0.90;;;;;;;26.03;46.90;95577.44;5132768;27;20496;-57
2023/10/10 10:44:28;;;;;;;1.70;0.50;;;;;;;26.47;46.42;95569.63;5136861;27;20498;-56
2023/10/10 10:46:58;;;;;;;0.50;0.40;;;;;;;26.66;45.49;95566.06;5110403;27;20438;-57
2023/10/10 10:49:28;;;;;;;0.50;0.40;;;;;;;27.62;44.76;95561.59;5136298;27;20487;-57
2023/10/10 10:52:17;;;;;;;0.40;0.30;;;;;;;27.89;44.28;95567.72;5136654;27;20442;-58
2023/10/10 10:55:18;;;;;;;0.73;0.70;;;;;;;27.29;44.77;95567.00;5136432;27;20562;-57
2023/10/10 10:57:49;;;;;;;1.77;0.50;;;;;;;26.59;45.87;95560.53;5135976;27;20903;-57
2023/10/10 11:00:25;;;;;;;0.90;0.43;;;;;;;26.72;45.34;95565.38;5136365;27;20447;-57
2023/10/10 11:02:59;;;;;;;0.50;0.30;;;;;;;27.40;46.13;95554.31;5136223;27;20438;-57
2023/10/10 11:05:29;;;;;;;0.60;0.40;;;;;;;28.06;44.41;95558.16;5136428;27;20441;-56
2023/10/10 11:08:10;;;;;;;1.47;0.70;;;;;;;27.69;43.82;95552.69;5109381;27;20493;-56
2023/10/10 11:10:45;;;;;;;5.63;0.60;;;;;;;27.37;44.11;95552.31;5135374;27;20434;-56
2023/10/10 11:13:14;;;;;;;4.50;1.10;;;;;;;27.68;42.11;95551.91;5136001;27;20446;-56
2023/10/10 11:15:45;;;;;;;1.33;0.53;;;;;;;29.14;40.60;95543.81;5135864;27;20560;-56
2023/10/10 11:18:13;;;;;;;0.50;0.40;;;;;;;29.65;40.36;95551.84;5136535;27;20442;-56
2023/10/10 11:21:08;;;;;;;0.40;0.40;;;;;;;29.76;40.59;95547.19;5135211;27;20460;-56
2023/10/10 11:23:42;;;;;;;0.50;0.50;;;;;;;28.39;40.90;95547.16;5134956;27;20438;-56
2023/10/10 11:26:14;;;;;;;6.57;0.53;;;;;;;27.78;40.00;95538.78;5136324;27;20533;-57
2023/10/10 11:28:47;;;;;;;0.40;0.30;;;;;;;26.99;41.11;95476.41;5135785;27;20947;-59
2023/10/10 11:31:23;;;;;;;0.43;0.37;;;;;;;26.91;41.99;95540.81;5135771;27;20499;-60
2023/10/10 11:34:10;;;;;;;0.33;0.20;;;;;;;26.80;41.38;95525.50;5135272;27;20438;-59
2023/10/10 11:36:39;;;;;;;0.87;0.47;;;;;;;26.54;44.42;95547.22;5135403;27;20430;-57
2023/10/10 11:39:31;;;;;;;0.97;0.97;;;;;;;26.24;44.73;95542.47;5135221;27;20442;-58
2023/10/10 11:42:04;;;;;;;1.80;1.33;;;;;;;26.03;45.28;95533.16;5135902;27;20444;-58
2023/10/10 11:44:34;;;;;;;2.40;0.57;;;;;;;25.59;45.90;95538.19;5135509;27;20507;-57
2023/10/10 11:47:07;;;;;;;0.40;0.40;;;;;;;25.70;46.61;95550.03;5135342;27;20525;-57
2023/10/10 11:49:36;;;;;;;1.43;0.67;;;;;;;25.61;47.19;95544.81;5133772;27;20435;-57
2023/10/10 11:52:05;;;;;;;0.40;0.40;;;;;;;25.66;46.84;95541.03;5134611;27;20438;-57
2023/10/10 11:54:35;;;;;;;2.20;0.60;;;;;;;25.10;46.96;95541.44;5134859;27;20474;-57
2023/10/10 11:57:03;;;;;;;0.50;0.40;;;;;;;25.12;48.31;95541.88;5135583;27;20434;-57
2023/10/10 11:59:33;;;;;;;0.60;0.40;;;;;;;25.15;46.91;95543.09;5134801;27;20438;-56
2023/10/10 12:02:13;;;;;;;1.10;0.67;;;;;;;25.08;47.74;95543.72;5135225;27;20435;-56
2023/10/10 12:04:44;;;;;;;0.70;0.70;;;;;;;24.97;47.71;95542.72;5134650;27;20477;-56
2023/10/10 12:07:14;;;;;;;0.60;0.50;;;;;;;24.99;47.57;95539.66;5134469;27;20484;-57
2023/10/10 12:09:48;;;;;;;0.50;0.30;;;;;;;25.41;47.81;95542.44;5135243;27;20442;-57
2023/10/10 12:12:17;;;;;;;0.70;0.43;;;;;;;25.33;47.11;95541.53;5134269;27;20919;-56
2023/10/10 12:14:50;;;;;;;0.60;0.50;;;;;;;24.72;45.07;95544.06;5134954;27;20462;-56
2023/10/10 12:17:21;;;;;;;2.97;0.50;;;;;;;24.63;45.79;95551.59;5134549;27;20430;-57
2023/10/10 12:19:49;;;;;;;1.33;0.50;;;;;;;24.76;47.42;95542.22;5134654;27;20503;-57
2023/10/10 12:22:18;;;;;;;1.07;0.47;;;;;;;24.73;46.75;95553.78;5134589;27;20438;-57
2023/10/10 12:24:48;;;;;;;0.40;0.30;;;;;;;24.80;46.96;95553.97;5134506;27;20992;-57
2023/10/10 12:27:16;;;;;;;0.50;0.43;;;;;;;24.26;47.75;95553.06;5134746;27;20435;-56
2023/10/10 12:29:47;;;;;;;0.40;0.30;;;;;;;24.24;47.59;95544.47;5134764;27;20450;-57
2023/10/10 12:32:18;;;;;;;1.53;0.60;;;;;;;24.24;47.23;95549.88;5108169;27;20437;-57
2023/10/10 12:34:48;;;;;;;0.60;0.40;;;;;;;24.48;45.93;95538.88;5134514;27;20472;-57
2023/10/10 12:37:16;;;;;;;0.40;0.30;;;;;;;24.41;46.16;95553.03;5134735;27;20446;-57
2023/10/10 12:39:49;;;;;;;0.40;0.30;;;;;;;24.24;46.48;95553.38;5120652;27;20446;-57
2023/10/10 12:42:17;;;;;;;0.40;0.30;;;;;;;24.06;45.99;95549.41;5134651;27;20507;-56
2023/10/10 12:44:47;;;;;;;0.40;0.30;;;;;;;23.83;46.72;95543.03;5133938;27;20431;-56
2023/10/10 12:47:18;;;;;;;1.53;0.67;;;;;;;23.50;48.46;95548.75;5134575;27;20950;-57
2023/10/10 12:49:47;;;;;;;0.40;0.30;;;;;;;23.21;48.05;95546.34;5134400;27;20434;-56
2023/10/10 12:52:17;;;;;;;0.40;0.30;;;;;;;23.56;48.53;95555.47;5121906;27;20958;-56
2023/10/10 12:54:57;;;;;;;0.40;0.30;;;;;;;23.57;48.14;95542.72;5132900;27;20426;-56
2023/10/10 12:57:32;;;;;;;0.40;0.30;;;;;;;23.81;46.94;95548.00;5133645;27;20474;-56
2023/10/10 13:00:23;;;;;;;0.47;0.27;;;;;;;23.60;48.09;95540.13;5133953;27;20434;-56
2023/10/10 13:02:53;;;;;;;0.40;0.30;;;;;;;23.51;47.78;95535.97;5133163;27;20431;-56
2023/10/10 13:05:27;;;;;;;0.60;0.50;;;;;;;23.86;47.92;95547.75;5133905;27;20446;-56
2023/10/10 13:07:58;;;;;;;0.40;0.20;;;;;;;24.06;50.14;95554.06;5133762;27;20497;-55
2023/10/10 13:10:32;;;;;;;0.60;0.30;;;;;;;23.98;49.19;95550.41;5132802;27;20448;-55
2023/10/10 13:13:02;;;;;;;0.47;0.30;;;;;;;24.11;49.77;95551.13;5133709;27;20449;-56
2023/10/10 13:15:46;;;;;;;0.40;0.23;;;;;;;24.18;49.59;95557.50;5132993;27;20462;-56
2023/10/10 13:18:20;;;;;;;0.60;0.40;;;;;;;23.78;48.65;95552.19;5133291;27;20430;-55
2023/10/10 13:20:50;;;;;;;0.40;0.30;;;;;;;23.79;50.96;95558.41;5133011;27;20853;-55
2023/10/10 13:23:19;;;;;;;0.40;0.30;;;;;;;23.55;50.24;95553.91;5134191;27;20483;-57
2023/10/10 13:25:49;;;;;;;0.67;0.57;;;;;;;23.46;48.01;95557.88;5133598;27;20434;-55
2023/10/10 13:28:19;;;;;;;1.90;0.30;;;;;;;23.16;47.75;95554.69;5132436;27;20801;-56
2023/10/10 13:30:48;;;;;;;6.83;0.60;;;;;;;23.18;47.85;95555.13;5133176;27;20434;-59
2023/10/10 13:33:20;;;;;;;2.90;0.60;;;;;;;23.48;49.46;95558.34;5132958;27;20902;-55
2023/10/10 13:35:49;;;;;;;0.60;0.30;;;;;;;23.84;47.67;95556.22;5133222;27;20473;-56
2023/10/10 13:38:18;;;;;;;0.60;0.50;;;;;;;24.11;47.82;95553.84;5133672;27;20475;-57
2023/10/10 13:40:48;;;;;;;0.50;0.40;;;;;;;24.16;46.86;95557.06;5133038;27;20821;-57
2023/10/10 13:43:19;;;;;;;0.40;0.40;;;;;;;24.19;46.70;95552.84;5132682;27;20491;-58
2023/10/10 13:45:49;;;;;;;0.50;0.40;;;;;;;24.22;45.20;95546.75;5132765;27;20446;-56
2023/10/10 13:48:19;;;;;;;0.40;0.40;;;;;;;23.80;46.62;95551.84;5132173;27;20484;-56
2023/10/10 13:50:51;;;;;;;0.50;0.40;;;;;;;23.38;46.19;95551.47;5133222;27;20453;-56
2023/10/10 13:53:20;;;;;;;0.50;0.30;;;;;;;23.58;46.06;95558.59;5132377;27;20446;-56
2023/10/10 13:55:50;;;;;;;0.40;0.30;;;;;;;23.79;45.55;95553.78;5132645;27;20498;-57
2023/10/10 13:58:20;;;;;;;0.40;0.30;;;;;;;23.72;45.37;95547.38;5133221;27;20446;-56
2023/10/10 14:01:13;;;;;;;0.40;0.30;;;;;;;23.86;45.33;95543.13;5119542;27;20435;-55
2023/10/10 14:03:46;;;;;;;0.50;0.40;;;;;;;23.74;45.26;95553.22;5133236;27;20470;-57
2023/10/10 14:06:17;;;;;;;0.40;0.30;;;;;;;23.42;44.96;95560.50;5132288;27;20499;-56
2023/10/10 14:08:47;;;;;;;0.40;0.30;;;;;;;23.39;45.43;95555.78;5132265;27;20470;-56